sensor_id;sensor_type;location;lat;lon;timestamp;P1;durP1;ratioP1;P2;durP2;ratioP2
16975;SDS011;8604;48.148;-1.786;2022-11-28T00:01:29;13.93;;;7.10;;
16975;SDS011;8604;48.148;-1.786;2022-11-28T00:04:00;12.73;;;6.30;;
16975;SDS011;8604;48.148;-1.786;2022-11-28T00:06:31;12.57;;;6.60;;
16975;SDS011;8604;48.148;-1.786;2022-11-28T00:09:03;12.73;;;5.67;;
16975;SDS011;8604;48.148;-1.786;2022-11-28T00:11:33;16.77;;;6.53;;
16975;SDS011;8604;48.148;-1.786;2022-11-28T00:14:05;10.90;;;5.57;;
16975;SDS011;8604;48.148;-1.786;2022-11-28T00:16:39;16.73;;;5.73;;
16975;SDS011;8604;48.148;-1.786;2022-11-28T00:19:09;15.90;;;5.63;;
16975;SDS011;8604;48.148;-1.786;2022-11-28T00:22:08;16.53;;;5.43;;
16975;SDS011;8604;48.148;-1.786;2022-11-28T00:24:38;18.20;;;5.37;;
16975;SDS011;8604;48.148;-1.786;2022-11-28T00:27:13;17.50;;;5.57;;
16975;SDS011;8604;48.148;-1.786;2022-11-28T00:29:57;16.93;;;5.00;;
16975;SDS011;8604;48.148;-1.786;2022-11-28T00:32:56;15.73;;;5.73;;
16975;SDS011;8604;48.148;-1.786;2022-11-28T00:35:56;17.23;;;5.03;;
16975;SDS011;8604;48.148;-1.786;2022-11-28T00:38:28;19.83;;;6.03;;
16975;SDS011;8604;48.148;-1.786;2022-11-28T00:40:58;17.53;;;5.83;;
16975;SDS011;8604;48.148;-1.786;2022-11-28T00:43:27;10.93;;;4.37;;
16975;SDS011;8604;48.148;-1.786;2022-11-28T00:45:56;15.87;;;4.93;;
16975;SDS011;8604;48.148;-1.786;2022-11-28T00:48:26;14.60;;;4.87;;
16975;SDS011;8604;48.148;-1.786;2022-11-28T00:51:03;14.20;;;4.67;;
16975;SDS011;8604;48.148;-1.786;2022-11-28T00:53:35;21.47;;;5.20;;
16975;SDS011;8604;48.148;-1.786;2022-11-28T00:56:09;16.20;;;5.23;;
16975;SDS011;8604;48.148;-1.786;2022-11-28T00:58:39;14.87;;;4.80;;
16975;SDS011;8604;48.148;-1.786;2022-11-28T01:01:10;14.47;;;5.00;;
16975;SDS011;8604;48.148;-1.786;2022-11-28T01:03:41;14.77;;;4.33;;
16975;SDS011;8604;48.148;-1.786;2022-11-28T01:06:11;15.27;;;4.63;;
16975;SDS011;8604;48.148;-1.786;2022-11-28T01:08:48;14.63;;;4.40;;
16975;SDS011;8604;48.148;-1.786;2022-11-28T01:11:17;17.63;;;5.20;;
16975;SDS011;8604;48.148;-1.786;2022-11-28T01:13:48;21.40;;;5.10;;
16975;SDS011;8604;48.148;-1.786;2022-11-28T01:16:17;18.73;;;5.37;;
16975;SDS011;8604;48.148;-1.786;2022-11-28T01:18:46;12.93;;;4.47;;
16975;SDS011;8604;48.148;-1.786;2022-11-28T01:21:16;19.57;;;5.20;;
16975;SDS011;8604;48.148;-1.786;2022-11-28T01:23:45;17.63;;;4.80;;
16975;SDS011;8604;48.148;-1.786;2022-11-28T01:26:17;17.07;;;4.67;;
16975;SDS011;8604;48.148;-1.786;2022-11-28T01:28:47;16.60;;;4.93;;
16975;SDS011;8604;48.148;-1.786;2022-11-28T01:31:17;14.70;;;4.70;;
16975;SDS011;8604;48.148;-1.786;2022-11-28T01:33:48;16.43;;;4.63;;
16975;SDS011;8604;48.148;-1.786;2022-11-28T01:36:17;15.13;;;4.50;;
16975;SDS011;8604;48.148;-1.786;2022-11-28T01:38:48;13.83;;;4.30;;
16975;SDS011;8604;48.148;-1.786;2022-11-28T01:41:21;17.40;;;4.90;;
16975;SDS011;8604;48.148;-1.786;2022-11-28T01:43:55;17.73;;;4.53;;
16975;SDS011;8604;48.148;-1.786;2022-11-28T01:46:29;14.13;;;4.53;;
16975;SDS011;8604;48.148;-1.786;2022-11-28T01:49:02;15.50;;;4.50;;
16975;SDS011;8604;48.148;-1.786;2022-11-28T01:51:41;17.30;;;4.77;;
16975;SDS011;8604;48.148;-1.786;2022-11-28T01:54:19;14.17;;;4.37;;
16975;SDS011;8604;48.148;-1.786;2022-11-28T01:56:59;15.40;;;4.23;;
16975;SDS011;8604;48.148;-1.786;2022-11-28T01:59:31;15.30;;;4.60;;
16975;SDS011;8604;48.148;-1.786;2022-11-28T02:02:04;13.93;;;4.33;;
16975;SDS011;8604;48.148;-1.786;2022-11-28T02:04:37;15.53;;;4.07;;
16975;SDS011;8604;48.148;-1.786;2022-11-28T02:07:07;15.63;;;4.10;;
16975;SDS011;8604;48.148;-1.786;2022-11-28T02:09:37;12.80;;;4.40;;
16975;SDS011;8604;48.148;-1.786;2022-11-28T02:12:13;16.67;;;4.50;;
16975;SDS011;8604;48.148;-1.786;2022-11-28T02:15:38;14.70;;;4.57;;
16975;SDS011;8604;48.148;-1.786;2022-11-28T02:19:27;14.47;;;4.27;;
16975;SDS011;8604;48.148;-1.786;2022-11-28T03:50:49;12.23;;;4.07;;
16975;SDS011;8604;48.148;-1.786;2022-11-28T03:53:28;17.77;;;4.50;;
16975;SDS011;8604;48.148;-1.786;2022-11-28T05:28:29;18.67;;;4.30;;
16975;SDS011;8604;48.148;-1.786;2022-11-28T05:31:31;16.70;;;4.60;;
16975;SDS011;8604;48.148;-1.786;2022-11-28T05:34:00;18.83;;;4.47;;
16975;SDS011;8604;48.148;-1.786;2022-11-28T05:36:29;15.73;;;4.30;;
16975;SDS011;8604;48.148;-1.786;2022-11-28T05:38:59;12.17;;;4.07;;
16975;SDS011;8604;48.148;-1.786;2022-11-28T05:41:44;11.80;;;4.10;;
16975;SDS011;8604;48.148;-1.786;2022-11-28T05:44:52;17.50;;;5.00;;
16975;SDS011;8604;48.148;-1.786;2022-11-28T05:47:22;12.87;;;4.30;;
16975;SDS011;8604;48.148;-1.786;2022-11-28T05:49:51;16.23;;;4.60;;
16975;SDS011;8604;48.148;-1.786;2022-11-28T05:55:30;14.70;;;4.30;;
16975;SDS011;8604;48.148;-1.786;2022-11-28T05:58:17;15.77;;;4.50;;
16975;SDS011;8604;48.148;-1.786;2022-11-28T06:00:52;12.83;;;4.77;;
16975;SDS011;8604;48.148;-1.786;2022-11-28T06:03:21;13.07;;;4.50;;
16975;SDS011;8604;48.148;-1.786;2022-11-28T06:05:49;11.67;;;4.10;;
16975;SDS011;8604;48.148;-1.786;2022-11-28T06:08:18;12.90;;;3.87;;
16975;SDS011;8604;48.148;-1.786;2022-11-28T06:10:54;14.73;;;4.30;;
16975;SDS011;8604;48.148;-1.786;2022-11-28T06:13:24;16.37;;;5.20;;
16975;SDS011;8604;48.148;-1.786;2022-11-28T06:15:54;12.00;;;4.50;;
16975;SDS011;8604;48.148;-1.786;2022-11-28T06:18:23;16.63;;;4.40;;
16975;SDS011;8604;48.148;-1.786;2022-11-28T06:20:52;15.10;;;4.00;;
16975;SDS011;8604;48.148;-1.786;2022-11-28T06:23:20;14.13;;;4.43;;
16975;SDS011;8604;48.148;-1.786;2022-11-28T06:25:49;14.60;;;4.97;;
16975;SDS011;8604;48.148;-1.786;2022-11-28T06:28:21;13.97;;;4.90;;
16975;SDS011;8604;48.148;-1.786;2022-11-28T06:30:49;16.70;;;4.50;;
16975;SDS011;8604;48.148;-1.786;2022-11-28T06:33:22;10.47;;;3.67;;
16975;SDS011;8604;48.148;-1.786;2022-11-28T06:35:51;9.60;;;3.73;;
16975;SDS011;8604;48.148;-1.786;2022-11-28T06:38:25;13.90;;;4.30;;
16975;SDS011;8604;48.148;-1.786;2022-11-28T06:40:55;12.17;;;4.17;;
16975;SDS011;8604;48.148;-1.786;2022-11-28T06:43:24;12.43;;;3.67;;
16975;SDS011;8604;48.148;-1.786;2022-11-28T22:30:20;17.30;;;5.57;;
16975;SDS011;8604;48.148;-1.786;2022-11-28T22:32:50;16.97;;;6.07;;
16975;SDS011;8604;48.148;-1.786;2022-11-28T22:35:19;17.67;;;5.90;;
16975;SDS011;8604;48.148;-1.786;2022-11-28T22:37:48;15.83;;;5.57;;
16975;SDS011;8604;48.148;-1.786;2022-11-28T22:40:19;15.13;;;5.33;;
16975;SDS011;8604;48.148;-1.786;2022-11-28T22:42:48;14.37;;;5.50;;
16975;SDS011;8604;48.148;-1.786;2022-11-28T22:45:22;18.50;;;5.80;;
16975;SDS011;8604;48.148;-1.786;2022-11-28T22:47:51;16.80;;;5.40;;
16975;SDS011;8604;48.148;-1.786;2022-11-28T22:50:19;15.70;;;5.33;;
16975;SDS011;8604;48.148;-1.786;2022-11-28T22:52:51;16.50;;;6.00;;
16975;SDS011;8604;48.148;-1.786;2022-11-28T22:55:23;18.83;;;6.23;;
16975;SDS011;8604;48.148;-1.786;2022-11-28T22:57:51;15.50;;;5.87;;
16975;SDS011;8604;48.148;-1.786;2022-11-28T23:00:20;18.13;;;6.40;;
16975;SDS011;8604;48.148;-1.786;2022-11-28T23:02:51;16.37;;;5.63;;
16975;SDS011;8604;48.148;-1.786;2022-11-28T23:05:20;19.67;;;6.03;;
16975;SDS011;8604;48.148;-1.786;2022-11-28T23:07:49;20.67;;;6.30;;
16975;SDS011;8604;48.148;-1.786;2022-11-28T23:10:17;19.43;;;6.17;;
16975;SDS011;8604;48.148;-1.786;2022-11-28T23:12:46;16.37;;;6.90;;
16975;SDS011;8604;48.148;-1.786;2022-11-28T23:15:16;22.80;;;6.30;;
16975;SDS011;8604;48.148;-1.786;2022-11-28T23:17:46;17.40;;;6.33;;
16975;SDS011;8604;48.148;-1.786;2022-11-28T23:20:18;17.33;;;6.23;;
16975;SDS011;8604;48.148;-1.786;2022-11-28T23:22:48;16.43;;;6.50;;
16975;SDS011;8604;48.148;-1.786;2022-11-28T23:25:18;17.83;;;6.70;;
16975;SDS011;8604;48.148;-1.786;2022-11-28T23:27:47;15.57;;;6.63;;
16975;SDS011;8604;48.148;-1.786;2022-11-28T23:30:17;24.27;;;9.00;;
16975;SDS011;8604;48.148;-1.786;2022-11-28T23:32:48;19.93;;;8.40;;
16975;SDS011;8604;48.148;-1.786;2022-11-28T23:35:17;16.87;;;8.07;;
16975;SDS011;8604;48.148;-1.786;2022-11-28T23:37:46;28.33;;;13.50;;
16975;SDS011;8604;48.148;-1.786;2022-11-28T23:40:14;20.70;;;10.87;;
16975;SDS011;8604;48.148;-1.786;2022-11-28T23:42:43;23.93;;;10.73;;
16975;SDS011;8604;48.148;-1.786;2022-11-28T23:45:12;19.47;;;9.03;;
16975;SDS011;8604;48.148;-1.786;2022-11-28T23:47:41;17.23;;;7.40;;
16975;SDS011;8604;48.148;-1.786;2022-11-28T23:50:11;16.00;;;7.33;;
16975;SDS011;8604;48.148;-1.786;2022-11-28T23:52:40;15.63;;;6.60;;
16975;SDS011;8604;48.148;-1.786;2022-11-28T23:55:09;14.53;;;6.00;;
16975;SDS011;8604;48.148;-1.786;2022-11-28T23:57:37;13.87;;;5.93;;
